sensor_id;sensor_type;location;lat;lon;timestamp;pressure;altitude;pressure_sealevel;temperature;humidity
70968;BME280;58629;48.808;8.820;2023-04-06T00:00:08;97334.59;;;-0.80;85.82
70968;BME280;58629;48.808;8.820;2023-04-06T00:02:33;97331.59;;;-0.82;85.47
70968;BME280;58629;48.808;8.820;2023-04-06T00:04:59;97333.94;;;-0.89;85.79
70968;BME280;58629;48.808;8.820;2023-04-06T00:07:24;97334.19;;;-0.94;86.55
70968;BME280;58629;48.808;8.820;2023-04-06T00:09:50;97329.53;;;-1.01;86.39
70968;BME280;58629;48.808;8.820;2023-04-06T00:12:15;97330.53;;;-1.05;87.07
70968;BME280;58629;48.808;8.820;2023-04-06T00:14:40;97332.47;;;-1.02;87.12
70968;BME280;58629;48.808;8.820;2023-04-06T00:17:06;97323.16;;;-1.03;88.07
70968;BME280;58629;48.808;8.820;2023-04-06T00:19:31;97321.00;;;-1.01;87.28
70968;BME280;58629;48.808;8.820;2023-04-06T00:21:56;97322.16;;;-0.99;86.36
70968;BME280;58629;48.808;8.820;2023-04-06T00:24:22;97320.22;;;-1.02;87.00
70968;BME280;58629;48.808;8.820;2023-04-06T00:26:47;97318.41;;;-1.01;86.43
70968;BME280;58629;48.808;8.820;2023-04-06T00:29:12;97323.25;;;-1.12;85.76
70968;BME280;58629;48.808;8.820;2023-04-06T00:31:38;97315.91;;;-1.22;86.63
70968;BME280;58629;48.808;8.820;2023-04-06T00:34:03;97314.38;;;-1.23;87.65
70968;BME280;58629;48.808;8.820;2023-04-06T00:36:28;97314.06;;;-1.21;87.73
70968;BME280;58629;48.808;8.820;2023-04-06T00:38:54;97312.34;;;-1.17;86.32
70968;BME280;58629;48.808;8.820;2023-04-06T00:41:20;97315.66;;;-1.17;86.33
70968;BME280;58629;48.808;8.820;2023-04-06T00:43:45;97310.16;;;-1.15;86.69
70968;BME280;58629;48.808;8.820;2023-04-06T00:46:11;97303.66;;;-1.21;86.92
70968;BME280;58629;48.808;8.820;2023-04-06T00:48:36;97306.81;;;-1.28;86.75
70968;BME280;58629;48.808;8.820;2023-04-06T00:51:01;97300.84;;;-1.40;86.30
70968;BME280;58629;48.808;8.820;2023-04-06T00:53:27;97308.09;;;-1.46;87.24
70968;BME280;58629;48.808;8.820;2023-04-06T00:55:52;97312.44;;;-1.38;87.96
70968;BME280;58629;48.808;8.820;2023-04-06T00:58:17;97305.28;;;-1.41;88.11
70968;BME280;58629;48.808;8.820;2023-04-06T01:00:43;97299.44;;;-1.38;88.62
70968;BME280;58629;48.808;8.820;2023-04-06T01:03:08;97295.22;;;-1.42;87.79
70968;BME280;58629;48.808;8.820;2023-04-06T01:05:37;97295.44;;;-1.35;88.29
70968;BME280;58629;48.808;8.820;2023-04-06T01:08:06;97296.94;;;-1.34;88.37
70968;BME280;58629;48.808;8.820;2023-04-06T01:10:31;97286.00;;;-1.40;87.98
70968;BME280;58629;48.808;8.820;2023-04-06T01:12:57;97291.31;;;-1.48;87.29
70968;BME280;58629;48.808;8.820;2023-04-06T01:15:24;97283.22;;;-1.47;88.25
70968;BME280;58629;48.808;8.820;2023-04-06T01:17:50;97281.25;;;-1.50;88.23
70968;BME280;58629;48.808;8.820;2023-04-06T01:20:16;97284.50;;;-1.53;88.00
70968;BME280;58629;48.808;8.820;2023-04-06T01:22:41;97285.69;;;-1.50;88.61
70968;BME280;58629;48.808;8.820;2023-04-06T01:25:07;97282.34;;;-1.51;88.56
70968;BME280;58629;48.808;8.820;2023-04-06T01:27:33;97286.44;;;-1.50;89.29
70968;BME280;58629;48.808;8.820;2023-04-06T01:29:58;97284.94;;;-1.51;88.17
70968;BME280;58629;48.808;8.820;2023-04-06T01:32:24;97284.81;;;-1.54;87.46
70968;BME280;58629;48.808;8.820;2023-04-06T01:34:49;97282.53;;;-1.56;86.51
70968;BME280;58629;48.808;8.820;2023-04-06T01:37:15;97283.94;;;-1.58;88.38
70968;BME280;58629;48.808;8.820;2023-04-06T01:39:42;97275.06;;;-1.57;88.07
70968;BME280;58629;48.808;8.820;2023-04-06T01:42:08;97276.47;;;-1.60;88.17
70968;BME280;58629;48.808;8.820;2023-04-06T01:44:33;97282.66;;;-1.64;88.22
70968;BME280;58629;48.808;8.820;2023-04-06T01:46:58;97279.94;;;-1.68;87.45
70968;BME280;58629;48.808;8.820;2023-04-06T01:49:24;97275.81;;;-1.69;88.75
70968;BME280;58629;48.808;8.820;2023-04-06T01:51:49;97275.50;;;-1.67;88.39
70968;BME280;58629;48.808;8.820;2023-04-06T01:54:15;97269.34;;;-1.75;87.71
70968;BME280;58629;48.808;8.820;2023-04-06T01:56:41;97267.38;;;-1.78;88.71
70968;BME280;58629;48.808;8.820;2023-04-06T01:59:06;97271.56;;;-1.86;88.16
70968;BME280;58629;48.808;8.820;2023-04-06T02:01:31;97267.91;;;-1.85;89.56
70968;BME280;58629;48.808;8.820;2023-04-06T02:03:57;97267.16;;;-1.85;88.47
70968;BME280;58629;48.808;8.820;2023-04-06T02:06:22;97262.72;;;-1.85;88.98
70968;BME280;58629;48.808;8.820;2023-04-06T02:08:47;97269.97;;;-1.78;89.44
70968;BME280;58629;48.808;8.820;2023-04-06T02:11:13;97270.41;;;-1.76;88.89
70968;BME280;58629;48.808;8.820;2023-04-06T02:13:38;97281.53;;;-1.76;88.25
70968;BME280;58629;48.808;8.820;2023-04-06T02:16:04;97265.88;;;-1.79;88.23
70968;BME280;58629;48.808;8.820;2023-04-06T02:18:30;97272.22;;;-1.89;88.28
70968;BME280;58629;48.808;8.820;2023-04-06T02:20:56;97263.91;;;-1.94;88.99
70968;BME280;58629;48.808;8.820;2023-04-06T02:23:21;97272.97;;;-1.88;88.96
70968;BME280;58629;48.808;8.820;2023-04-06T02:25:47;97270.38;;;-1.88;88.76
70968;BME280;58629;48.808;8.820;2023-04-06T02:28:12;97269.09;;;-1.94;88.02
70968;BME280;58629;48.808;8.820;2023-04-06T02:30:37;97271.75;;;-2.03;88.35
70968;BME280;58629;48.808;8.820;2023-04-06T02:33:03;97269.38;;;-1.96;88.99
70968;BME280;58629;48.808;8.820;2023-04-06T02:35:29;97262.03;;;-1.94;89.43
70968;BME280;58629;48.808;8.820;2023-04-06T02:37:55;97264.97;;;-1.95;88.74
70968;BME280;58629;48.808;8.820;2023-04-06T02:40:20;97260.53;;;-1.95;88.82
70968;BME280;58629;48.808;8.820;2023-04-06T02:42:46;97262.59;;;-2.00;88.87
70968;BME280;58629;48.808;8.820;2023-04-06T02:45:11;97259.84;;;-2.04;88.19
70968;BME280;58629;48.808;8.820;2023-04-06T02:47:36;97259.31;;;-2.09;88.71
70968;BME280;58629;48.808;8.820;2023-04-06T02:50:02;97260.19;;;-2.05;89.22
70968;BME280;58629;48.808;8.820;2023-04-06T02:52:28;97255.75;;;-2.05;89.43
70968;BME280;58629;48.808;8.820;2023-04-06T02:54:53;97260.50;;;-2.07;88.75
70968;BME280;58629;48.808;8.820;2023-04-06T02:57:18;97256.50;;;-2.16;89.80
70968;BME280;58629;48.808;8.820;2023-04-06T02:59:43;97254.91;;;-2.29;89.26
70968;BME280;58629;48.808;8.820;2023-04-06T03:02:09;97260.09;;;-2.29;90.38
70968;BME280;58629;48.808;8.820;2023-04-06T03:04:35;97255.06;;;-2.26;89.68
70968;BME280;58629;48.808;8.820;2023-04-06T03:07:00;97256.13;;;-2.27;89.88
70968;BME280;58629;48.808;8.820;2023-04-06T03:09:25;97257.94;;;-2.27;89.58
70968;BME280;58629;48.808;8.820;2023-04-06T03:11:51;97256.22;;;-2.23;89.71
70968;BME280;58629;48.808;8.820;2023-04-06T03:14:16;97252.88;;;-2.24;89.68
70968;BME280;58629;48.808;8.820;2023-04-06T03:16:46;97253.75;;;-2.32;88.74
70968;BME280;58629;48.808;8.820;2023-04-06T03:19:11;97253.38;;;-2.42;88.44
70968;BME280;58629;48.808;8.820;2023-04-06T03:21:37;97250.97;;;-2.47;89.26
70968;BME280;58629;48.808;8.820;2023-04-06T03:24:02;97252.28;;;-2.41;88.24
70968;BME280;58629;48.808;8.820;2023-04-06T03:26:27;97246.78;;;-2.40;88.56
70968;BME280;58629;48.808;8.820;2023-04-06T03:28:53;97255.63;;;-2.41;89.20
70968;BME280;58629;48.808;8.820;2023-04-06T03:31:18;97259.44;;;-2.38;88.04
70968;BME280;58629;48.808;8.820;2023-04-06T03:33:43;97255.31;;;-2.39;88.29
70968;BME280;58629;48.808;8.820;2023-04-06T03:36:09;97259.50;;;-2.47;88.14
70968;BME280;58629;48.808;8.820;2023-04-06T03:38:34;97257.31;;;-2.57;88.86
70968;BME280;58629;48.808;8.820;2023-04-06T03:41:00;97266.78;;;-2.61;88.50
70968;BME280;58629;48.808;8.820;2023-04-06T03:43:25;97263.00;;;-2.63;88.90
70968;BME280;58629;48.808;8.820;2023-04-06T03:45:50;97269.63;;;-2.75;89.24
70968;BME280;58629;48.808;8.820;2023-04-06T03:48:16;97271.03;;;-2.77;89.98
70968;BME280;58629;48.808;8.820;2023-04-06T03:50:41;97267.59;;;-2.69;90.14
70968;BME280;58629;48.808;8.820;2023-04-06T03:53:06;97269.69;;;-2.63;89.91
70968;BME280;58629;48.808;8.820;2023-04-06T03:55:31;97267.56;;;-2.60;88.61
70968;BME280;58629;48.808;8.820;2023-04-06T03:57:57;97267.66;;;-2.57;88.81
70968;BME280;58629;48.808;8.820;2023-04-06T04:00:22;97274.13;;;-2.63;88.36
70968;BME280;58629;48.808;8.820;2023-04-06T04:02:48;97280.56;;;-2.69;88.91
70968;BME280;58629;48.808;8.820;2023-04-06T04:05:13;97274.38;;;-2.77;88.89
70968;BME280;58629;48.808;8.820;2023-04-06T04:07:38;97282.03;;;-2.80;88.93
70968;BME280;58629;48.808;8.820;2023-04-06T04:10:04;97279.25;;;-2.75;89.22
70968;BME280;58629;48.808;8.820;2023-04-06T04:12:29;97283.38;;;-2.74;89.72
70968;BME280;58629;48.808;8.820;2023-04-06T04:14:55;97272.56;;;-2.76;89.78
70968;BME280;58629;48.808;8.820;2023-04-06T04:17:21;97279.38;;;-2.72;89.73
70968;BME280;58629;48.808;8.820;2023-04-06T04:19:46;97276.91;;;-2.68;89.66
70968;BME280;58629;48.808;8.820;2023-04-06T04:22:12;97281.78;;;-2.67;89.31
70968;BME280;58629;48.808;8.820;2023-04-06T04:24:37;97284.25;;;-2.70;88.19
70968;BME280;58629;48.808;8.820;2023-04-06T04:27:02;97280.28;;;-2.68;89.16
70968;BME280;58629;48.808;8.820;2023-04-06T04:29:28;97284.03;;;-2.65;89.27
70968;BME280;58629;48.808;8.820;2023-04-06T04:31:53;97279.31;;;-2.63;88.87
70968;BME280;58629;48.808;8.820;2023-04-06T04:34:18;97286.03;;;-2.62;89.46
70968;BME280;58629;48.808;8.820;2023-04-06T04:36:50;97286.78;;;-2.61;89.01
70968;BME280;58629;48.808;8.820;2023-04-06T04:39:15;97287.66;;;-2.57;88.45
70968;BME280;58629;48.808;8.820;2023-04-06T04:41:41;97291.00;;;-2.57;87.88
70968;BME280;58629;48.808;8.820;2023-04-06T04:44:06;97288.94;;;-2.63;88.18
70968;BME280;58629;48.808;8.820;2023-04-06T04:46:31;97284.81;;;-2.65;88.61
70968;BME280;58629;48.808;8.820;2023-04-06T04:48:57;97286.34;;;-2.63;89.20
70968;BME280;58629;48.808;8.820;2023-04-06T04:51:22;97292.63;;;-2.73;88.40
70968;BME280;58629;48.808;8.820;2023-04-06T04:53:47;97298.19;;;-2.83;88.19
70968;BME280;58629;48.808;8.820;2023-04-06T04:56:12;97295.34;;;-2.90;88.63
70968;BME280;58629;48.808;8.820;2023-04-06T04:58:38;97294.91;;;-2.92;89.44
70968;BME280;58629;48.808;8.820;2023-04-06T05:01:03;97299.09;;;-2.79;89.61
70968;BME280;58629;48.808;8.820;2023-04-06T05:03:29;97299.97;;;-2.75;89.60
70968;BME280;58629;48.808;8.820;2023-04-06T05:05:54;97303.00;;;-2.73;89.34
70968;BME280;58629;48.808;8.820;2023-04-06T05:08:20;97300.28;;;-2.77;88.98
70968;BME280;58629;48.808;8.820;2023-04-06T05:10:45;97298.50;;;-2.85;89.12
70968;BME280;58629;48.808;8.820;2023-04-06T05:13:11;97301.22;;;-2.81;90.11
70968;BME280;58629;48.808;8.820;2023-04-06T05:15:37;97303.66;;;-2.76;89.80
70968;BME280;58629;48.808;8.820;2023-04-06T05:18:06;97301.38;;;-2.78;89.94
70968;BME280;58629;48.808;8.820;2023-04-06T05:20:32;97299.22;;;-2.76;89.65
70968;BME280;58629;48.808;8.820;2023-04-06T05:22:57;97307.94;;;-2.80;88.75
70968;BME280;58629;48.808;8.820;2023-04-06T05:25:23;97309.66;;;-2.84;90.33
70968;BME280;58629;48.808;8.820;2023-04-06T05:27:49;97302.75;;;-2.80;91.12
70968;BME280;58629;48.808;8.820;2023-04-06T05:30:14;97299.53;;;-2.77;91.00
70968;BME280;58629;48.808;8.820;2023-04-06T05:32:39;97299.81;;;-2.70;90.86
70968;BME280;58629;48.808;8.820;2023-04-06T05:35:05;97294.84;;;-2.63;91.31
70968;BME280;58629;48.808;8.820;2023-04-06T05:37:30;97294.69;;;-2.58;90.81
70968;BME280;58629;48.808;8.820;2023-04-06T05:39:56;97303.47;;;-2.50;90.63
70968;BME280;58629;48.808;8.820;2023-04-06T05:42:22;97307.31;;;-2.56;89.87
70968;BME280;58629;48.808;8.820;2023-04-06T05:44:48;97309.53;;;-2.46;90.55
70968;BME280;58629;48.808;8.820;2023-04-06T05:47:13;97312.13;;;-2.46;90.05
70968;BME280;58629;48.808;8.820;2023-04-06T05:49:38;97315.47;;;-2.46;90.31
70968;BME280;58629;48.808;8.820;2023-04-06T05:52:04;97313.78;;;-2.42;89.96
70968;BME280;58629;48.808;8.820;2023-04-06T05:54:29;97313.56;;;-2.37;90.19
70968;BME280;58629;48.808;8.820;2023-04-06T05:56:55;97317.38;;;-2.34;90.42
70968;BME280;58629;48.808;8.820;2023-04-06T05:59:20;97319.75;;;-2.29;89.84
70968;BME280;58629;48.808;8.820;2023-04-06T06:01:45;97316.00;;;-2.20;89.99
70968;BME280;58629;48.808;8.820;2023-04-06T06:04:11;97321.69;;;-2.06;90.43
70968;BME280;58629;48.808;8.820;2023-04-06T06:06:36;97324.97;;;-1.97;90.27
70968;BME280;58629;48.808;8.820;2023-04-06T06:09:02;97326.41;;;-1.87;89.88
70968;BME280;58629;48.808;8.820;2023-04-06T06:11:28;97328.94;;;-1.79;88.21
70968;BME280;58629;48.808;8.820;2023-04-06T06:13:54;97315.72;;;-1.73;87.81
70968;BME280;58629;48.808;8.820;2023-04-06T06:16:19;97317.47;;;-1.65;87.54
70968;BME280;58629;48.808;8.820;2023-04-06T06:18:45;97322.25;;;-1.55;87.01
70968;BME280;58629;48.808;8.820;2023-04-06T06:21:10;97325.50;;;-1.46;86.53
70968;BME280;58629;48.808;8.820;2023-04-06T06:23:39;97316.84;;;-1.38;85.77
70968;BME280;58629;48.808;8.820;2023-04-06T06:26:05;97322.50;;;-1.24;85.85
70968;BME280;58629;48.808;8.820;2023-04-06T06:28:30;97316.97;;;-1.11;86.15
70968;BME280;58629;48.808;8.820;2023-04-06T06:30:56;97321.00;;;-1.01;84.84
70968;BME280;58629;48.808;8.820;2023-04-06T06:33:21;97320.22;;;-0.90;84.59
70968;BME280;58629;48.808;8.820;2023-04-06T06:35:46;97322.69;;;-0.81;83.25
70968;BME280;58629;48.808;8.820;2023-04-06T06:38:12;97319.44;;;-0.66;83.85
70968;BME280;58629;48.808;8.820;2023-04-06T06:40:37;97323.16;;;-0.51;82.91
70968;BME280;58629;48.808;8.820;2023-04-06T06:43:02;97326.06;;;-0.41;82.12
70968;BME280;58629;48.808;8.820;2023-04-06T06:45:28;97327.66;;;-0.24;82.26
70968;BME280;58629;48.808;8.820;2023-04-06T06:47:54;97328.47;;;-0.08;81.96
70968;BME280;58629;48.808;8.820;2023-04-06T06:50:20;97323.63;;;0.06;81.46
70968;BME280;58629;48.808;8.820;2023-04-06T06:52:45;97332.56;;;0.21;80.70
70968;BME280;58629;48.808;8.820;2023-04-06T06:55:10;97328.47;;;0.35;80.63
70968;BME280;58629;48.808;8.820;2023-04-06T06:57:36;97327.50;;;0.55;80.29
70968;BME280;58629;48.808;8.820;2023-04-06T07:00:02;97321.50;;;0.70;79.79
70968;BME280;58629;48.808;8.820;2023-04-06T07:02:28;97327.88;;;0.88;79.25
70968;BME280;58629;48.808;8.820;2023-04-06T07:04:53;97326.44;;;1.07;78.75
70968;BME280;58629;48.808;8.820;2023-04-06T07:07:18;97329.44;;;1.24;78.92
70968;BME280;58629;48.808;8.820;2023-04-06T07:09:44;97326.31;;;1.34;77.35
70968;BME280;58629;48.808;8.820;2023-04-06T07:12:09;97329.63;;;1.50;76.42
70968;BME280;58629;48.808;8.820;2023-04-06T07:14:34;97323.94;;;1.64;75.02
70968;BME280;58629;48.808;8.820;2023-04-06T07:17:01;97327.56;;;1.78;74.80
70968;BME280;58629;48.808;8.820;2023-04-06T07:19:26;97324.13;;;1.94;74.31
70968;BME280;58629;48.808;8.820;2023-04-06T07:21:52;97317.31;;;2.08;73.97
70968;BME280;58629;48.808;8.820;2023-04-06T07:24:17;97320.59;;;2.24;73.52
70968;BME280;58629;48.808;8.820;2023-04-06T07:26:43;97317.44;;;2.38;72.85
70968;BME280;58629;48.808;8.820;2023-04-06T07:29:08;97325.53;;;2.52;73.09
70968;BME280;58629;48.808;8.820;2023-04-06T07:31:33;97324.31;;;2.69;72.83
70968;BME280;58629;48.808;8.820;2023-04-06T07:34:00;97318.56;;;2.82;71.33
70968;BME280;58629;48.808;8.820;2023-04-06T07:36:25;97318.81;;;3.00;71.70
70968;BME280;58629;48.808;8.820;2023-04-06T07:38:51;97319.47;;;3.19;71.41
70968;BME280;58629;48.808;8.820;2023-04-06T07:41:16;97317.72;;;3.27;69.18
70968;BME280;58629;48.808;8.820;2023-04-06T07:43:41;97321.03;;;3.50;70.87
70968;BME280;58629;48.808;8.820;2023-04-06T07:46:07;97317.50;;;3.69;69.78
70968;BME280;58629;48.808;8.820;2023-04-06T07:48:32;97322.91;;;3.83;69.68
70968;BME280;58629;48.808;8.820;2023-04-06T07:51:02;97321.25;;;4.01;69.23
70968;BME280;58629;48.808;8.820;2023-04-06T07:53:27;97320.72;;;4.21;69.34
70968;BME280;58629;48.808;8.820;2023-04-06T07:55:53;97322.44;;;4.44;68.08
70968;BME280;58629;48.808;8.820;2023-04-06T07:58:18;97324.47;;;4.64;68.33
70968;BME280;58629;48.808;8.820;2023-04-06T08:00:44;97324.31;;;4.87;67.92
70968;BME280;58629;48.808;8.820;2023-04-06T08:03:09;97318.81;;;5.09;67.16
70968;BME280;58629;48.808;8.820;2023-04-06T08:05:34;97319.72;;;5.31;66.44
70968;BME280;58629;48.808;8.820;2023-04-06T08:08:00;97321.34;;;5.53;66.22
70968;BME280;58629;48.808;8.820;2023-04-06T08:10:25;97322.94;;;5.75;65.95
70968;BME280;58629;48.808;8.820;2023-04-06T08:12:52;97318.84;;;5.78;62.50
70968;BME280;58629;48.808;8.820;2023-04-06T08:15:17;97322.31;;;5.99;62.04
70968;BME280;58629;48.808;8.820;2023-04-06T08:17:43;97314.47;;;6.17;61.79
70968;BME280;58629;48.808;8.820;2023-04-06T08:20:09;97313.75;;;6.34;60.43
70968;BME280;58629;48.808;8.820;2023-04-06T08:22:34;97308.50;;;6.48;60.01
70968;BME280;58629;48.808;8.820;2023-04-06T08:24:59;97311.94;;;6.73;60.03
70968;BME280;58629;48.808;8.820;2023-04-06T08:27:25;97307.78;;;6.97;57.83
70968;BME280;58629;48.808;8.820;2023-04-06T08:29:50;97304.75;;;7.13;56.77
70968;BME280;58629;48.808;8.820;2023-04-06T08:32:16;97311.50;;;7.28;55.79
70968;BME280;58629;48.808;8.820;2023-04-06T08:34:42;97297.91;;;7.43;54.53
70968;BME280;58629;48.808;8.820;2023-04-06T08:37:07;97306.50;;;7.61;52.93
70968;BME280;58629;48.808;8.820;2023-04-06T08:39:32;97298.56;;;7.75;54.14
70968;BME280;58629;48.808;8.820;2023-04-06T08:41:59;97306.72;;;7.99;52.39
70968;BME280;58629;48.808;8.820;2023-04-06T08:44:28;97298.34;;;8.18;50.07
70968;BME280;58629;48.808;8.820;2023-04-06T08:46:54;97306.59;;;8.34;47.74
70968;BME280;58629;48.808;8.820;2023-04-06T08:49:20;97291.75;;;8.50;47.33
70968;BME280;58629;48.808;8.820;2023-04-06T08:51:46;97298.03;;;8.70;47.46
70968;BME280;58629;48.808;8.820;2023-04-06T08:54:12;97298.00;;;8.74;43.89
70968;BME280;58629;48.808;8.820;2023-04-06T08:56:38;97298.59;;;8.92;42.55
70968;BME280;58629;48.808;8.820;2023-04-06T08:59:04;97293.94;;;9.07;43.97
70968;BME280;58629;48.808;8.820;2023-04-06T09:01:31;97298.00;;;9.18;43.90
70968;BME280;58629;48.808;8.820;2023-04-06T09:03:59;97296.69;;;9.33;44.68
70968;BME280;58629;48.808;8.820;2023-04-06T09:06:26;97295.41;;;9.48;42.91
70968;BME280;58629;48.808;8.820;2023-04-06T09:08:56;97294.47;;;9.66;42.82
70968;BME280;58629;48.808;8.820;2023-04-06T09:11:22;97301.34;;;9.90;41.93
70968;BME280;58629;48.808;8.820;2023-04-06T09:13:52;97295.19;;;10.00;41.52
70968;BME280;58629;48.808;8.820;2023-04-06T09:16:18;97299.06;;;9.92;40.08
70968;BME280;58629;48.808;8.820;2023-04-06T09:18:44;97297.56;;;9.91;41.56
70968;BME280;58629;48.808;8.820;2023-04-06T09:21:10;97294.44;;;10.29;43.85
70968;BME280;58629;48.808;8.820;2023-04-06T09:23:37;97297.19;;;10.49;39.05
70968;BME280;58629;48.808;8.820;2023-04-06T09:26:12;97291.25;;;10.41;38.11
70968;BME280;58629;48.808;8.820;2023-04-06T09:28:57;97294.59;;;10.69;37.81
70968;BME280;58629;48.808;8.820;2023-04-06T09:31:26;97298.16;;;10.82;38.85
70968;BME280;58629;48.808;8.820;2023-04-06T09:33:53;97293.56;;;10.86;36.68
70968;BME280;58629;48.808;8.820;2023-04-06T09:36:18;97282.47;;;10.94;37.79
70968;BME280;58629;48.808;8.820;2023-04-06T09:39:01;97290.28;;;11.24;39.35
70968;BME280;58629;48.808;8.820;2023-04-06T09:41:27;97286.09;;;11.23;35.77
70968;BME280;58629;48.808;8.820;2023-04-06T09:44:13;97294.41;;;11.45;38.50
70968;BME280;58629;48.808;8.820;2023-04-06T09:46:40;97283.66;;;11.75;36.96
70968;BME280;58629;48.808;8.820;2023-04-06T09:49:07;97282.59;;;11.89;37.31
70968;BME280;58629;48.808;8.820;2023-04-06T09:51:41;97282.09;;;11.78;37.38
70968;BME280;58629;48.808;8.820;2023-04-06T09:54:09;97282.34;;;11.83;38.84
70968;BME280;58629;48.808;8.820;2023-04-06T09:56:46;97282.41;;;11.99;37.52
70968;BME280;58629;48.808;8.820;2023-04-06T09:59:14;97280.41;;;12.03;36.66
70968;BME280;58629;48.808;8.820;2023-04-06T10:01:44;97273.94;;;12.04;37.43
70968;BME280;58629;48.808;8.820;2023-04-06T10:04:29;97280.31;;;12.43;37.04
70968;BME280;58629;48.808;8.820;2023-04-06T10:06:59;97277.75;;;12.55;35.14
70968;BME280;58629;48.808;8.820;2023-04-06T10:09:28;97280.75;;;12.57;36.19
70968;BME280;58629;48.808;8.820;2023-04-06T10:12:01;97283.13;;;12.68;35.07
70968;BME280;58629;48.808;8.820;2023-04-06T10:14:26;97277.41;;;12.53;34.02
70968;BME280;58629;48.808;8.820;2023-04-06T10:16:51;97276.84;;;12.46;33.87
70968;BME280;58629;48.808;8.820;2023-04-06T10:19:22;97270.69;;;12.65;35.92
70968;BME280;58629;48.808;8.820;2023-04-06T10:21:51;97274.81;;;12.82;36.53
70968;BME280;58629;48.808;8.820;2023-04-06T10:24:19;97280.06;;;12.85;33.84
70968;BME280;58629;48.808;8.820;2023-04-06T10:26:57;97260.84;;;12.94;34.33
70968;BME280;58629;48.808;8.820;2023-04-06T10:29:22;97278.25;;;12.82;33.30
70968;BME280;58629;48.808;8.820;2023-04-06T10:31:48;97266.19;;;12.94;34.67
70968;BME280;58629;48.808;8.820;2023-04-06T10:34:14;97265.59;;;13.19;34.95
70968;BME280;58629;48.808;8.820;2023-04-06T10:36:39;97265.56;;;13.35;34.68
70968;BME280;58629;48.808;8.820;2023-04-06T10:39:05;97261.59;;;13.39;34.84
70968;BME280;58629;48.808;8.820;2023-04-06T10:41:33;97271.19;;;13.37;33.89
70968;BME280;58629;48.808;8.820;2023-04-06T10:43:59;97256.63;;;13.13;31.55
70968;BME280;58629;48.808;8.820;2023-04-06T10:46:28;97250.50;;;12.83;31.10
70968;BME280;58629;48.808;8.820;2023-04-06T10:48:53;97253.44;;;13.18;34.20
70968;BME280;58629;48.808;8.820;2023-04-06T10:51:24;97246.63;;;13.45;34.51
70968;BME280;58629;48.808;8.820;2023-04-06T10:53:53;97248.72;;;13.66;32.91
70968;BME280;58629;48.808;8.820;2023-04-06T10:56:22;97248.09;;;13.87;33.68
70968;BME280;58629;48.808;8.820;2023-04-06T10:58:48;97249.88;;;13.65;31.96
70968;BME280;58629;48.808;8.820;2023-04-06T11:01:21;97242.69;;;13.78;33.68
70968;BME280;58629;48.808;8.820;2023-04-06T11:03:55;97250.78;;;14.13;31.94
70968;BME280;58629;48.808;8.820;2023-04-06T11:06:24;97244.50;;;14.07;31.22
70968;BME280;58629;48.808;8.820;2023-04-06T11:08:52;97244.16;;;14.05;31.76
70968;BME280;58629;48.808;8.820;2023-04-06T11:11:20;97240.34;;;13.93;30.45
70968;BME280;58629;48.808;8.820;2023-04-06T11:13:49;97244.81;;;14.09;29.79
70968;BME280;58629;48.808;8.820;2023-04-06T11:16:17;97234.06;;;14.00;30.21
70968;BME280;58629;48.808;8.820;2023-04-06T11:21:15;97231.09;;;13.98;29.74
70968;BME280;58629;48.808;8.820;2023-04-06T11:23:40;97232.66;;;13.95;30.84
70968;BME280;58629;48.808;8.820;2023-04-06T11:26:12;97224.47;;;14.15;32.49
70968;BME280;58629;48.808;8.820;2023-04-06T11:28:40;97217.47;;;14.46;30.36
70968;BME280;58629;48.808;8.820;2023-04-06T11:31:06;97210.50;;;14.61;28.65
70968;BME280;58629;48.808;8.820;2023-04-06T11:33:36;97214.84;;;14.67;30.29
70968;BME280;58629;48.808;8.820;2023-04-06T11:36:02;97210.34;;;14.77;31.06
70968;BME280;58629;48.808;8.820;2023-04-06T11:38:27;97213.25;;;14.92;30.59
70968;BME280;58629;48.808;8.820;2023-04-06T11:40:53;97207.72;;;14.52;29.74
70968;BME280;58629;48.808;8.820;2023-04-06T11:43:26;97211.63;;;14.72;31.11
70968;BME280;58629;48.808;8.820;2023-04-06T11:45:59;97209.09;;;14.69;30.52
70968;BME280;58629;48.808;8.820;2023-04-06T11:48:26;97199.31;;;14.88;31.55
70968;BME280;58629;48.808;8.820;2023-04-06T11:50:58;97196.69;;;15.09;31.25
70968;BME280;58629;48.808;8.820;2023-04-06T11:53:29;97193.63;;;15.20;31.52
70968;BME280;58629;48.808;8.820;2023-04-06T11:55:55;97198.03;;;15.35;30.54
70968;BME280;58629;48.808;8.820;2023-04-06T11:58:20;97197.22;;;15.26;28.71
70968;BME280;58629;48.808;8.820;2023-04-06T12:00:46;97187.34;;;15.35;28.63
70968;BME280;58629;48.808;8.820;2023-04-06T12:03:12;97184.28;;;15.37;28.83
70968;BME280;58629;48.808;8.820;2023-04-06T12:05:37;97184.38;;;15.55;30.69
70968;BME280;58629;48.808;8.820;2023-04-06T12:08:03;97179.19;;;15.51;31.18
70968;BME280;58629;48.808;8.820;2023-04-06T12:10:28;97177.88;;;15.56;30.47
70968;BME280;58629;48.808;8.820;2023-04-06T12:12:54;97177.38;;;15.79;30.07
70968;BME280;58629;48.808;8.820;2023-04-06T12:15:19;97177.31;;;15.92;29.46
70968;BME280;58629;48.808;8.820;2023-04-06T12:17:45;97175.69;;;15.94;29.85
70968;BME280;58629;48.808;8.820;2023-04-06T12:20:10;97183.16;;;16.08;29.07
70968;BME280;58629;48.808;8.820;2023-04-06T12:22:36;97180.31;;;16.03;28.47
70968;BME280;58629;48.808;8.820;2023-04-06T12:25:01;97173.81;;;16.13;26.34
70968;BME280;58629;48.808;8.820;2023-04-06T12:27:26;97172.59;;;16.05;27.52
70968;BME280;58629;48.808;8.820;2023-04-06T12:29:52;97172.50;;;15.78;26.49
70968;BME280;58629;48.808;8.820;2023-04-06T12:32:17;97168.47;;;15.73;26.96
70968;BME280;58629;48.808;8.820;2023-04-06T12:34:43;97169.69;;;15.81;28.08
70968;BME280;58629;48.808;8.820;2023-04-06T12:37:08;97170.72;;;15.31;29.54
70968;BME280;58629;48.808;8.820;2023-04-06T12:39:33;97162.31;;;15.33;30.40
70968;BME280;58629;48.808;8.820;2023-04-06T12:41:58;97169.00;;;14.94;28.25
70968;BME280;58629;48.808;8.820;2023-04-06T12:44:24;97172.09;;;14.71;29.65
70968;BME280;58629;48.808;8.820;2023-04-06T12:46:49;97163.63;;;14.38;29.46
70968;BME280;58629;48.808;8.820;2023-04-06T12:49:15;97171.13;;;14.06;28.79
70968;BME280;58629;48.808;8.820;2023-04-06T12:51:43;97174.09;;;13.95;30.50
70968;BME280;58629;48.808;8.820;2023-04-06T12:54:08;97167.06;;;14.01;30.81
70968;BME280;58629;48.808;8.820;2023-04-06T12:56:34;97169.41;;;13.99;30.57
70968;BME280;58629;48.808;8.820;2023-04-06T12:59:00;97161.75;;;13.88;30.15